Las Vegas, NM

02:42 MDT le 25 octobre 2014 (GMT -0600)
Las Vegas Municipal | Change Station
CLOSE
Current Station
Aéroport
Location: Las Vegas,
Altitude: 6877 ft
Stations météo à proximité

Alt. 6877 ft 35.65 °N, 105.14 °W | Updated 49 minutes ago

Ciel dégagé
Ciel dégagé
44 ° F
Paraît 42 ° F
N
5
Vent Variable Vent de ENE

Aujourd'hui
Haut(e) -- | Bas -- ° F
--% Risque de précip.
Hier
Haut(e) -- | Bas -- ° F
Precip. -- pouce
7:16 AM 6:12 PM
Nouvelle lune, 2% visible
Pression 30.05 pouce
Visibilité 10.0 Miles terrestres
Nuages Ciel dégagé
Refroidissement éolien 42 ° F
Point de rosée 22 ° F
Humidité 42%
Précipitations 0.00 pouce
Profondeur de la couche neigeuse Non disponible.
UV 0 sur 12
Pollen 3.50 sur 12
Qualité de l'air Non disponible.
Flu Activity Sporadic
METAR KLVS 250753Z AUTO 07004KT 10SM CLR 07/M06 A3032 RMK AO2 SLP175 T00671056

More Conditions Fewer Conditions

Pression 30.05 pouce
Visibilité 10.0 Miles terrestres
Nuages Ciel dégagé
Refroidissement éolien 42 ° F
Point de rosée 22 ° F
Humidité 42%
Précipitations 0.00 pouce
Profondeur de la couche neigeuse Non disponible.
UV 0 sur 12
Pollen 3.50 sur 12
Qualité de l'air Non disponible.
Flu Activity Sporadic
METAR KLVS 250753Z AUTO 07004KT 10SM CLR 07/M06 A3032 RMK AO2 SLP175 T00671056

More Conditions Fewer Conditions

10-Day Weather Forecast

Almanac

Astronomie

Oct. 25, 2014 Lever Coucher
Temps réel 07:16 MDT 18:12 MDT
Crépuscule civil 06:49 MDT 18:38 MDT
Crépuscule nautique 06:20 MDT 19:08 MDT
Crépuscule astronomique 05:50 MDT 19:38 MDT
Lune 08:54 MDT 19:40 MDT
Durée de lumière visible 11h 48m
Longueur du jour
10h 56m
Tomorrow will be 2m 4s shorter.
Nouvelle lune, 2% of the Moon is Illuminated
Aujourd'hui
Nouvelle lune
Oct 30
Premier quartier
Nov 6
Pleine lune
Nov 14
Dernier quartier
Nov 22
Nouveau

Extrêmes aujourd'hui

State Highs State Lows

Community

WunderPhotos

Upload Photos

1,764,791 Photos téléchargées !

Nearby

Épaisseur de neige

Station Depth Altitude
Wesner Springs 0 in 11120 ft
Elk Cabin 0 in 8210 ft
Santa Fe 1 in 11445 ft
Gallegos Peak 0 in 9800 ft
Quemazon 1 in 9500 ft

Activité sismique

Ville Distance Mag. Time & Date
No recent earthquake activity has been reported nearby.
Minimum magnitude displayed is 2.5.

Températures des eaux côtières

Lieu Température
Aucun rapport de station

Stations météo à proximité